createdAt,value
2023-08-18T00:01:17.252Z,19.10
2023-08-18T00:04:10.749Z,19.10
2023-08-18T00:06:57.891Z,19.10
2023-08-18T00:09:51.797Z,19.00
2023-08-18T00:12:39.036Z,19.10
2023-08-18T00:15:32.853Z,19.00
2023-08-18T00:18:26.817Z,19.00
2023-08-18T00:21:20.762Z,18.90
2023-08-18T00:24:14.810Z,18.90
2023-08-18T00:27:02.009Z,18.90
2023-08-18T00:29:55.847Z,18.90
2023-08-18T00:32:43.017Z,18.90
2023-08-18T00:35:36.827Z,18.90
2023-08-18T00:38:24.000Z,18.80
2023-08-18T00:41:17.850Z,18.80
2023-08-18T00:44:05.013Z,18.90
2023-08-18T00:46:58.806Z,18.80
2023-08-18T00:49:52.806Z,18.80
2023-08-18T00:52:43.830Z,18.80
2023-08-18T00:55:37.834Z,18.80
2023-08-18T00:58:25.441Z,18.80
2023-08-18T01:01:20.855Z,18.80
2023-08-18T01:04:08.187Z,18.70
2023-08-18T01:07:01.880Z,18.70
2023-08-18T01:09:49.102Z,18.70
2023-08-18T01:13:00.868Z,18.70
2023-08-18T01:15:57.848Z,18.70
2023-08-18T01:18:52.891Z,18.70
2023-08-18T01:21:50.834Z,18.70
2023-08-18T01:24:44.872Z,18.60
2023-08-18T01:27:33.172Z,18.60
2023-08-18T01:30:35.104Z,18.60
2023-08-18T01:33:38.892Z,18.60
2023-08-18T01:36:37.916Z,18.60
2023-08-18T01:39:27.386Z,18.60
2023-08-18T01:42:21.921Z,18.50
2023-08-18T01:45:12.435Z,18.50
2023-08-18T01:48:05.961Z,18.50
2023-08-18T01:50:59.932Z,18.50
2023-08-18T01:53:53.974Z,18.50
2023-08-18T01:56:47.956Z,18.50
2023-08-18T01:59:41.487Z,18.50
2023-08-18T02:02:35.016Z,18.40
2023-08-18T02:05:22.208Z,18.40
2023-08-18T02:08:16.050Z,18.40
2023-08-18T02:11:04.308Z,18.40
2023-08-18T02:13:58.035Z,18.30
2023-08-18T02:16:52.010Z,18.30
2023-08-18T02:19:39.205Z,18.30
2023-08-18T02:22:34.100Z,18.30
2023-08-18T02:25:29.036Z,18.30
2023-08-18T02:28:23.012Z,18.30
2023-08-18T02:31:11.643Z,18.30
2023-08-18T02:34:05.050Z,18.20
2023-08-18T02:36:52.164Z,18.20
2023-08-18T02:39:46.104Z,18.20
2023-08-18T02:42:42.026Z,18.20
2023-08-18T02:45:36.033Z,18.10
2023-08-18T02:48:31.096Z,18.10
2023-08-18T02:51:18.246Z,18.10
2023-08-18T02:54:25.056Z,18.10
2023-08-18T02:57:12.211Z,18.10
2023-08-18T03:00:06.010Z,18.00
2023-08-18T03:02:53.316Z,18.00
2023-08-18T03:05:47.036Z,18.00
2023-08-18T03:08:42.052Z,18.00
2023-08-18T03:11:36.056Z,18.00
2023-08-18T03:14:30.032Z,18.00
2023-08-18T03:17:17.182Z,17.90
2023-08-18T03:20:13.097Z,17.90
2023-08-18T03:23:07.050Z,17.90
2023-08-18T03:26:12.078Z,17.90
2023-08-18T03:28:59.180Z,17.90
2023-08-18T03:31:53.125Z,17.90
2023-08-18T03:34:47.061Z,17.90
2023-08-18T03:37:41.113Z,17.90
2023-08-18T03:40:28.214Z,17.90
2023-08-18T03:43:22.141Z,17.90
2023-08-18T03:46:36.073Z,17.90
2023-08-18T03:49:23.586Z,17.90
2023-08-18T03:52:17.180Z,17.80
2023-08-18T03:55:05.662Z,17.80
2023-08-18T03:57:59.120Z,17.80
2023-08-18T04:00:53.103Z,17.70
2023-08-18T04:03:42.642Z,17.80
2023-08-18T04:06:36.181Z,17.80
2023-08-18T04:09:23.376Z,17.80
2023-08-18T04:12:17.173Z,17.70
2023-08-18T04:15:11.154Z,17.70
2023-08-18T04:17:58.349Z,17.70
2023-08-18T04:20:52.213Z,17.80
2023-08-18T04:23:46.149Z,17.70
2023-08-18T04:26:36.043Z,17.80
2023-08-18T04:29:30.168Z,17.70
2023-08-18T04:32:24.151Z,17.70
2023-08-18T04:35:11.753Z,17.70
2023-08-18T04:38:05.187Z,17.70
2023-08-18T04:41:03.121Z,17.70
2023-08-18T04:43:58.165Z,17.70
2023-08-18T04:46:52.220Z,17.70
2023-08-18T04:49:46.191Z,17.70
2023-08-18T04:52:40.168Z,17.70
2023-08-18T04:55:27.406Z,17.70
2023-08-18T04:58:21.273Z,17.70
2023-08-18T05:01:09.404Z,17.70
2023-08-18T05:04:05.208Z,17.70
2023-08-18T05:06:52.539Z,17.80
2023-08-18T05:09:47.220Z,17.80
2023-08-18T05:12:41.207Z,17.80
2023-08-18T05:15:28.336Z,17.80
2023-08-18T05:18:22.224Z,17.80
2023-08-18T05:21:09.302Z,17.80
2023-08-18T05:24:03.301Z,17.90
2023-08-18T05:26:50.462Z,17.90
2023-08-18T05:29:44.293Z,18.00
2023-08-18T05:32:38.293Z,18.00
2023-08-18T05:35:33.295Z,18.00
2023-08-18T05:38:27.394Z,18.00
2023-08-18T05:41:15.829Z,18.00
2023-08-18T05:44:09.276Z,18.10
2023-08-18T05:46:56.377Z,18.10
2023-08-18T05:49:50.276Z,18.20
2023-08-18T05:52:37.395Z,18.20
2023-08-18T05:55:32.311Z,18.30
2023-08-18T05:58:20.148Z,18.30
2023-08-18T06:01:13.391Z,18.30
2023-08-18T06:04:07.344Z,18.30
2023-08-18T06:06:54.528Z,18.40
2023-08-18T06:09:48.318Z,18.40
2023-08-18T06:12:35.771Z,18.40
2023-08-18T06:15:29.351Z,18.40
2023-08-18T06:18:16.506Z,18.40
2023-08-18T06:21:10.414Z,18.50
2023-08-18T06:24:04.306Z,18.40
2023-08-18T06:26:51.457Z,18.40
2023-08-18T06:29:46.348Z,18.50
2023-08-18T06:32:33.712Z,18.60
2023-08-18T06:35:27.364Z,18.70
2023-08-18T06:38:14.460Z,18.70
2023-08-18T06:41:08.388Z,18.80
2023-08-18T06:43:55.966Z,18.90
2023-08-18T06:46:49.370Z,19.00
2023-08-18T06:49:43.430Z,19.10
2023-08-18T06:52:30.822Z,19.10
2023-08-18T06:55:32.041Z,19.30
2023-08-18T06:58:29.924Z,19.50
2023-08-18T07:01:23.485Z,19.50
2023-08-18T07:04:11.484Z,19.50
2023-08-18T07:07:05.426Z,19.40
2023-08-18T07:09:52.562Z,19.40
2023-08-18T07:12:46.485Z,19.40
2023-08-18T07:15:40.476Z,19.40
2023-08-18T07:18:27.611Z,19.50
2023-08-18T07:21:21.426Z,19.50
2023-08-18T07:24:08.903Z,19.50
2023-08-18T07:27:02.440Z,19.60
2023-08-18T07:29:49.685Z,19.60
2023-08-18T07:32:44.598Z,19.60
2023-08-18T07:35:38.526Z,19.60
2023-08-18T07:38:32.448Z,19.60
2023-08-18T07:41:26.466Z,19.50
2023-08-18T07:44:13.580Z,19.50
2023-08-18T07:47:07.461Z,19.50
2023-08-18T07:49:54.659Z,19.60
2023-08-18T07:52:51.479Z,19.60
2023-08-18T07:55:45.471Z,19.60
2023-08-18T07:58:39.495Z,19.70
2023-08-18T08:01:33.697Z,19.80
2023-08-18T08:04:20.919Z,20.00
2023-08-18T08:07:14.488Z,20.30
2023-08-18T08:10:05.515Z,20.50
2023-08-18T08:12:59.478Z,20.70
2023-08-18T08:15:53.535Z,20.90
2023-08-18T08:18:47.550Z,21.10
2023-08-18T08:21:37.463Z,21.20
2023-08-18T08:24:31.625Z,21.40
2023-08-18T08:27:19.607Z,21.50
2023-08-18T08:30:34.833Z,21.50
2023-08-18T08:33:29.553Z,21.60
2023-08-18T08:36:23.646Z,21.70
2023-08-18T08:39:17.572Z,21.90
2023-08-18T08:42:11.575Z,22.00
2023-08-18T08:45:05.663Z,22.10
2023-08-18T08:47:55.519Z,22.10
2023-08-18T08:50:54.568Z,22.00
2023-08-18T08:53:47.263Z,22.00
2023-08-18T08:56:42.620Z,22.00
2023-08-18T08:59:36.643Z,22.20
2023-08-18T09:02:23.859Z,22.40
2023-08-18T09:05:18.613Z,22.50
2023-08-18T09:08:05.964Z,22.60
2023-08-18T09:10:59.878Z,22.70
2023-08-18T09:13:47.037Z,22.70
2023-08-18T09:16:41.044Z,22.60
2023-08-18T09:19:34.961Z,22.60
2023-08-18T09:22:29.907Z,22.50
2023-08-18T09:25:17.407Z,22.50
2023-08-18T09:28:16.311Z,22.50
2023-08-18T09:31:10.864Z,22.50
2023-08-18T09:34:06.652Z,22.60
2023-08-18T09:37:00.664Z,22.80
2023-08-18T09:39:54.696Z,22.80
2023-08-18T09:42:48.656Z,22.80
2023-08-18T09:45:47.661Z,22.80
2023-08-18T09:48:42.738Z,23.00
2023-08-18T09:51:36.667Z,23.20
2023-08-18T09:54:28.752Z,23.40
2023-08-18T09:57:52.741Z,23.60
2023-08-18T10:00:50.684Z,23.80
2023-08-18T10:03:41.809Z,24.10
2023-08-18T10:06:36.732Z,24.10
2023-08-18T10:09:28.708Z,24.20
2023-08-18T10:12:22.664Z,24.50
2023-08-18T10:15:10.744Z,24.70
2023-08-18T10:18:04.784Z,24.80
2023-08-18T10:21:00.719Z,24.80
2023-08-18T10:23:48.365Z,24.80
2023-08-18T10:26:50.733Z,24.90
2023-08-18T10:29:44.805Z,24.90
2023-08-18T10:32:41.812Z,25.00
2023-08-18T10:35:29.835Z,25.10
2023-08-18T10:38:24.710Z,25.30
2023-08-18T10:41:12.604Z,25.30
2023-08-18T10:44:05.760Z,25.30
2023-08-18T10:47:00.743Z,25.30
2023-08-18T10:49:47.870Z,25.30
2023-08-18T10:52:41.757Z,25.50
2023-08-18T10:55:37.783Z,25.60
2023-08-18T10:58:31.797Z,25.70
2023-08-18T11:01:28.880Z,25.90
2023-08-18T11:04:22.870Z,26.10
2023-08-18T11:07:10.167Z,26.30
2023-08-18T11:10:03.813Z,26.20
2023-08-18T11:12:55.899Z,26.00
2023-08-18T11:15:49.860Z,26.00
2023-08-18T11:18:43.833Z,26.00
2023-08-18T11:21:31.522Z,26.20
2023-08-18T11:24:24.849Z,26.20
2023-08-18T11:27:12.419Z,26.30
2023-08-18T11:30:06.825Z,26.30
2023-08-18T11:32:55.535Z,26.40
2023-08-18T11:35:50.864Z,26.50
2023-08-18T11:38:45.861Z,26.60
2023-08-18T11:41:46.106Z,26.60
2023-08-18T11:44:42.868Z,26.60
2023-08-18T11:47:30.704Z,26.70
2023-08-18T11:50:26.837Z,26.80
2023-08-18T11:53:27.035Z,27.00
2023-08-18T11:56:21.895Z,27.10
2023-08-18T11:59:09.692Z,27.10
2023-08-18T12:02:08.861Z,27.20
2023-08-18T12:05:03.927Z,27.30
2023-08-18T12:07:53.912Z,27.40
2023-08-18T12:10:48.024Z,27.40
2023-08-18T12:13:35.229Z,27.60
2023-08-18T12:16:28.913Z,27.70
2023-08-18T12:19:16.097Z,27.80
2023-08-18T12:22:09.912Z,27.90
2023-08-18T12:24:57.053Z,28.10
2023-08-18T12:27:57.967Z,28.20
2023-08-18T12:30:51.970Z,28.30
2023-08-18T12:33:39.104Z,28.30
2023-08-18T12:36:32.975Z,28.40
2023-08-18T12:39:21.280Z,28.50
2023-08-18T12:42:15.009Z,28.40
2023-08-18T12:45:02.654Z,28.50
2023-08-18T12:47:55.997Z,28.60
2023-08-18T12:50:49.952Z,28.60
2023-08-18T12:53:44.040Z,28.70
2023-08-18T12:56:37.986Z,28.70
2023-08-18T12:59:25.194Z,28.90
2023-08-18T13:02:19.034Z,28.90
2023-08-18T13:05:13.061Z,29.00
2023-08-18T13:08:07.031Z,28.80
2023-08-18T13:10:54.161Z,28.50
2023-08-18T13:13:47.985Z,28.30
2023-08-18T13:16:35.520Z,28.20
2023-08-18T13:19:28.994Z,28.50
2023-08-18T13:22:23.072Z,28.80
2023-08-18T13:25:15.710Z,29.10
2023-08-18T13:28:11.028Z,29.40
2023-08-18T13:30:58.202Z,29.50
2023-08-18T13:34:05.067Z,29.60
2023-08-18T13:36:53.944Z,29.80
2023-08-18T13:39:49.051Z,29.90
2023-08-18T13:42:36.219Z,30.00
2023-08-18T13:45:30.061Z,30.00
2023-08-18T13:48:24.064Z,30.20
2023-08-18T13:51:18.167Z,30.20
2023-08-18T13:54:13.341Z,30.30
2023-08-18T13:57:00.971Z,30.40
2023-08-18T13:59:55.115Z,30.50
2023-08-18T14:02:42.305Z,30.40
2023-08-18T14:05:36.121Z,30.20
2023-08-18T14:08:30.139Z,30.00
2023-08-18T14:11:24.152Z,29.70
2023-08-18T14:14:11.396Z,29.40
2023-08-18T14:17:07.158Z,29.10
2023-08-18T14:19:54.371Z,29.00
2023-08-18T14:22:52.202Z,29.20
2023-08-18T14:25:47.092Z,29.50
2023-08-18T14:28:41.093Z,29.90
2023-08-18T14:31:35.205Z,30.30
2023-08-18T14:34:29.169Z,30.30
2023-08-18T14:37:23.175Z,30.40
2023-08-18T14:40:18.127Z,30.60
2023-08-18T14:43:16.645Z,30.80
2023-08-18T14:46:13.180Z,30.90
2023-08-18T14:49:00.331Z,30.90
2023-08-18T14:51:54.207Z,30.90
2023-08-18T14:54:48.157Z,30.90
2023-08-18T14:57:43.212Z,30.80
2023-08-18T15:00:36.774Z,30.80
2023-08-18T15:03:31.458Z,30.60
2023-08-18T15:06:25.204Z,30.40
2023-08-18T15:09:12.523Z,30.30
2023-08-18T15:12:07.158Z,30.30
2023-08-18T15:15:01.444Z,30.20
2023-08-18T15:17:48.668Z,30.10
2023-08-18T15:20:42.191Z,30.10
2023-08-18T15:23:29.736Z,30.10
2023-08-18T15:26:23.235Z,30.20
2023-08-18T15:29:17.189Z,30.20
2023-08-18T15:32:11.261Z,30.30
2023-08-18T15:35:05.215Z,30.20
2023-08-18T15:37:52.605Z,30.10
2023-08-18T15:40:50.300Z,29.90
2023-08-18T15:43:44.199Z,29.60
2023-08-18T15:46:31.349Z,29.30
2023-08-18T15:49:25.259Z,28.90
2023-08-18T15:52:12.340Z,28.60
2023-08-18T15:55:06.269Z,28.40
2023-08-18T15:58:01.049Z,28.30
2023-08-18T16:00:56.285Z,28.20
2023-08-18T16:03:50.256Z,28.20
2023-08-18T16:06:46.305Z,28.40
2023-08-18T16:09:40.259Z,28.70
2023-08-18T16:12:27.436Z,29.00
2023-08-18T16:15:28.669Z,29.20
2023-08-18T16:18:23.337Z,29.20
2023-08-18T16:21:18.361Z,29.00
2023-08-18T16:24:05.819Z,28.80
2023-08-18T16:27:00.274Z,28.40
2023-08-18T16:29:54.262Z,28.10
2023-08-18T16:32:48.330Z,28.00
2023-08-18T16:35:42.409Z,27.70
2023-08-18T16:38:29.644Z,27.50
2023-08-18T16:41:23.304Z,27.30
2023-08-18T16:44:17.505Z,27.20
2023-08-18T16:47:12.370Z,27.10
2023-08-18T16:49:59.593Z,27.10
2023-08-18T16:52:53.314Z,27.10
2023-08-18T16:55:50.321Z,27.20
2023-08-18T16:58:38.901Z,27.30
2023-08-18T17:01:32.314Z,27.50
2023-08-18T17:04:26.707Z,27.60
2023-08-18T17:07:22.348Z,27.70
2023-08-18T17:10:16.436Z,27.80
2023-08-18T17:13:06.853Z,27.80
2023-08-18T17:16:00.374Z,27.80
2023-08-18T17:18:54.086Z,27.70
2023-08-18T17:21:48.461Z,27.60
2023-08-18T17:24:35.623Z,27.40
2023-08-18T17:27:29.671Z,27.20
2023-08-18T17:30:23.398Z,27.10
2023-08-18T17:33:10.539Z,26.90
2023-08-18T17:36:04.476Z,26.80
2023-08-18T17:38:51.714Z,26.70
2023-08-18T17:41:45.510Z,26.60
2023-08-18T17:44:32.746Z,26.40
2023-08-18T17:47:26.571Z,26.20
2023-08-18T17:50:20.430Z,26.10
2023-08-18T17:53:07.577Z,25.90
2023-08-18T17:56:01.458Z,25.80
2023-08-18T17:58:48.644Z,25.80
2023-08-18T18:01:42.613Z,25.70
2023-08-18T18:04:29.835Z,25.70
2023-08-18T18:07:24.452Z,25.60
2023-08-18T18:10:11.806Z,25.60
2023-08-18T18:13:09.459Z,25.50
2023-08-18T18:15:56.670Z,25.50
2023-08-18T18:18:50.505Z,25.50
2023-08-18T18:21:44.458Z,25.40
2023-08-18T18:24:31.851Z,25.30
2023-08-18T18:27:25.519Z,25.30
2023-08-18T18:30:14.552Z,25.20
2023-08-18T18:33:08.621Z,25.20
2023-08-18T18:36:02.464Z,25.20
2023-08-18T18:38:49.857Z,25.10
2023-08-18T18:41:43.574Z,25.10
2023-08-18T18:44:37.563Z,25.00
2023-08-18T18:47:25.045Z,25.00
2023-08-18T18:50:18.504Z,24.90
2023-08-18T18:53:12.546Z,24.90
2023-08-18T18:56:07.735Z,24.90
2023-08-18T18:59:01.546Z,24.80
2023-08-18T19:01:48.814Z,24.70
2023-08-18T19:04:56.614Z,24.70
2023-08-18T19:07:56.584Z,24.60
2023-08-18T19:10:43.775Z,24.60
2023-08-18T19:13:37.589Z,24.50
2023-08-18T19:16:25.173Z,24.50
2023-08-18T19:19:18.606Z,24.40
2023-08-18T19:22:05.818Z,24.30
2023-08-18T19:25:01.854Z,24.30
2023-08-18T19:27:51.521Z,24.30
2023-08-18T19:30:45.556Z,24.20
2023-08-18T19:33:39.689Z,24.20
2023-08-18T19:36:33.589Z,24.10
2023-08-18T19:39:20.898Z,24.10
2023-08-18T19:42:14.607Z,24.10
2023-08-18T19:45:02.418Z,24.00
2023-08-18T19:47:57.608Z,24.00
2023-08-18T19:50:51.667Z,24.00
2023-08-18T19:53:45.678Z,23.90
2023-08-18T19:56:32.920Z,23.90
2023-08-18T19:59:26.714Z,23.90
2023-08-18T20:02:20.697Z,23.80
2023-08-18T20:05:15.628Z,23.80
2023-08-18T20:08:03.500Z,23.80
2023-08-18T20:10:57.633Z,23.80
2023-08-18T20:13:51.674Z,23.80
2023-08-18T20:16:38.889Z,23.70
2023-08-18T20:19:32.659Z,23.70
2023-08-18T20:22:19.837Z,23.70
2023-08-18T20:25:15.688Z,23.70
2023-08-18T20:28:02.849Z,23.70
2023-08-18T20:30:56.742Z,23.60
2023-08-18T20:33:43.930Z,23.60
2023-08-18T20:36:37.675Z,23.50
2023-08-18T20:39:24.830Z,23.50
2023-08-18T20:42:20.704Z,23.50
2023-08-18T20:45:08.539Z,23.50
2023-08-18T20:48:02.774Z,23.40
2023-08-18T20:50:57.689Z,23.40
2023-08-18T20:53:53.815Z,23.40
2023-08-18T20:56:47.780Z,23.40
2023-08-18T20:59:41.753Z,23.40
2023-08-18T21:02:29.043Z,23.40
2023-08-18T21:05:22.834Z,23.40
2023-08-18T21:08:16.726Z,23.40
2023-08-18T21:11:03.936Z,23.30
2023-08-18T21:14:10.912Z,23.30
2023-08-18T21:16:58.050Z,23.30
2023-08-18T21:19:52.785Z,23.30
2023-08-18T21:22:52.829Z,23.30
2023-08-18T21:25:47.837Z,23.20
2023-08-18T21:28:41.820Z,23.30
2023-08-18T21:31:28.966Z,23.20
2023-08-18T21:34:22.788Z,23.20
2023-08-18T21:37:09.855Z,23.30
2023-08-18T21:40:03.840Z,23.30
2023-08-18T21:42:51.046Z,23.30
2023-08-18T21:45:44.868Z,23.30
2023-08-18T21:48:32.107Z,23.30
2023-08-18T21:51:25.822Z,23.40
2023-08-18T21:54:13.166Z,23.40
2023-08-18T21:57:06.874Z,23.40
2023-08-18T22:00:00.866Z,23.40
2023-08-18T22:02:48.332Z,23.40
2023-08-18T22:05:48.853Z,23.30
2023-08-18T22:08:42.830Z,23.40
2023-08-18T22:11:29.986Z,23.40
2023-08-18T22:14:23.835Z,23.30
2023-08-18T22:17:17.866Z,23.30
2023-08-18T22:20:09.205Z,23.30
2023-08-18T22:23:03.952Z,23.30
2023-08-18T22:25:57.848Z,23.30
2023-08-18T22:28:51.937Z,23.30
2023-08-18T22:31:45.936Z,23.40
2023-08-18T22:34:33.175Z,23.30
2023-08-18T22:37:26.869Z,23.40
2023-08-18T22:40:14.136Z,23.40
2023-08-18T22:43:07.917Z,23.40
2023-08-18T22:45:55.464Z,23.40
2023-08-18T22:48:48.934Z,23.30
2023-08-18T22:51:36.079Z,23.30
2023-08-18T22:54:29.924Z,23.30
2023-08-18T22:57:17.021Z,23.30
2023-08-18T23:00:13.984Z,23.30
2023-08-18T23:03:07.974Z,23.30
2023-08-18T23:05:55.125Z,23.20
2023-08-18T23:08:48.930Z,23.20
2023-08-18T23:11:36.198Z,23.20
2023-08-18T23:14:31.016Z,23.20
2023-08-18T23:17:25.981Z,23.20
2023-08-18T23:20:20.055Z,23.20
2023-08-18T23:23:07.316Z,23.10
2023-08-18T23:26:00.970Z,23.20
2023-08-18T23:28:55.036Z,23.20
2023-08-18T23:31:48.947Z,23.10
2023-08-18T23:34:43.022Z,23.10
2023-08-18T23:37:30.359Z,23.10
2023-08-18T23:40:23.992Z,23.10
2023-08-18T23:43:11.211Z,23.10
2023-08-18T23:46:12.070Z,23.10
2023-08-18T23:49:06.080Z,23.10
2023-08-18T23:51:53.223Z,23.10
2023-08-18T23:54:47.012Z,23.10
2023-08-18T23:57:34.395Z,23.10
